Galileo — SX2040 — position and weather

sailwx.info

Track history (hours):
 
Tides and Currents Weather Stations Pressure Air Temp Water Temp Dewpoint Dewpoint Depression Visibility Wind Speed Wind Dir Waves Ship Positions

Galileo

Last reported at 2017-Jun-26 10:33 UTC. Time now 2017-Jun-26 15:31 UTC.
Position N 37°05' E 025°09'.

Length 50 m; draft 3 m.

Type: Passenger vessel. MMSI: 239299000.

Date/timePositionNaut miles runAvg speedWind from/ knotsBaromVisibWave heightAir tempDewpointWater temp
2017-Jun-26 10:33N 37°05' E 025°09'0 6.3
2017-Jun-26 10:30N 37°05' E 025°09'5 9.8
2017-Jun-26 10:00N 37°03' E 025°03'  
2017-Jun-23 23:55N 37°29' E 023°31'3 7.0
2017-Jun-23 23:29N 37°30' E 023°27'0 0.0
2017-Jun-23 20:38N 37°30' E 023°27'0 0.0
2017-Jun-23 20:30N 37°30' E 023°27'0 0.0
2017-Jun-23 20:00N 37°30' E 023°27'0 0.0
2017-Jun-23 19:29N 37°30' E 023°27'0 0.0
2017-Jun-23 19:00N 37°30' E 023°27'0 0.0
2017-Jun-23 17:34N 37°30' E 023°27'0 0.0
2017-Jun-23 17:30N 37°30' E 023°27'0 0.2
2017-Jun-23 16:09N 37°30' E 023°27'1 4.2
2017-Jun-23 16:00N 37°30' E 023°26'5 6.9
2017-Jun-23 15:18N 37°35' E 023°28'3 9.6
2017-Jun-23 15:01N 37°37' E 023°30'10 9.5
2017-Jun-23 14:01N 37°46' E 023°35'5 9.4
2017-Jun-23 13:31N 37°51' E 023°36'4 8.8
2017-Jun-23 13:01N 37°55' E 023°39'1 2.9
2017-Jun-23 12:31N 37°56' E 023°39'0 0.0
2017-Jun-23 12:00N 37°56' E 023°39'0 0.0
2017-Jun-23 11:31N 37°56' E 023°39'0 0.0
2017-Jun-23 11:01N 37°56' E 023°39'0 0.0
2017-Jun-23 10:31N 37°56' E 023°39'0 0.0
2017-Jun-23 10:00N 37°56' E 023°39'0 0.0
2017-Jun-23 09:30N 37°56' E 023°39'0 0.0
2017-Jun-23 09:00N 37°56' E 023°39'0 0.0
2017-Jun-23 08:31N 37°56' E 023°39'0 0.0
2017-Jun-23 08:01N 37°56' E 023°39'0 0.0
2017-Jun-23 07:31N 37°56' E 023°39'0 0.0
2017-Jun-23 07:01N 37°56' E 023°39'0 0.0
2017-Jun-23 06:31N 37°56' E 023°39'0 0.0
2017-Jun-23 06:01N 37°56' E 023°39'0 0.0
2017-Jun-23 05:31N 37°56' E 023°39'0 0.0
2017-Jun-23 05:00N 37°56' E 023°39'0 0.0
2017-Jun-23 04:31N 37°56' E 023°39'0 0.0
2017-Jun-23 04:01N 37°56' E 023°39'0 0.0
2017-Jun-23 03:31N 37°56' E 023°39'0 0.0
2017-Jun-23 03:00N 37°56' E 023°39'0 0.0
2017-Jun-23 02:31N 37°56' E 023°39'0 0.0
2017-Jun-23 02:01N 37°56' E 023°39'0 0.0
2017-Jun-23 01:30N 37°56' E 023°39'0 0.0
2017-Jun-23 01:00N 37°56' E 023°39'0 0.0
2017-Jun-23 00:30N 37°56' E 023°39'0 0.0
2017-Jun-23 00:00N 37°56' E 023°39'0 0.0
2017-Jun-22 23:31N 37°56' E 023°39'0 0.0
2017-Jun-22 23:00N 37°56' E 023°39'0 0.0
2017-Jun-22 22:30N 37°56' E 023°39'0 0.0
2017-Jun-22 22:01N 37°56' E 023°39'0 0.0
2017-Jun-22 21:30N 37°56' E 023°39'0 0.0
2017-Jun-22 21:00N 37°56' E 023°39'0 0.0
2017-Jun-22 20:30N 37°56' E 023°39'0 0.0
2017-Jun-22 20:01N 37°56' E 023°39'0 0.0
2017-Jun-22 19:30N 37°56' E 023°39'0 0.0
2017-Jun-22 19:01N 37°56' E 023°39'0 0.0
2017-Jun-22 18:31N 37°56' E 023°39'0 0.0
2017-Jun-22 18:01N 37°56' E 023°39'0 0.0
2017-Jun-22 17:31N 37°56' E 023°39'0 0.0
2017-Jun-22 17:01N 37°56' E 023°39'0 0.0
2017-Jun-22 16:30N 37°56' E 023°39'0 0.1
2017-Jun-22 16:00N 37°56' E 023°39'1 1.0
2017-Jun-22 15:30N 37°56' E 023°40'4 7.6
2017-Jun-22 15:01N 37°52' E 023°42'4 7.7
2017-Jun-22 14:31N 37°49' E 023°44'51 5.1
2017-Jun-22 04:35N 37°31' E 024°44'1 9.6
2017-Jun-22 04:30N 37°31' E 024°45'5 9.6
2017-Jun-22 04:00N 37°31' E 024°51'5 9.4
2017-Jun-22 03:27N 37°30' E 024°57'4 7.9
2017-Jun-22 03:00N 37°26' E 024°57'0 0.1
2017-Jun-22 02:28N 37°26' E 024°57'0 0.0
2017-Jun-22 02:00N 37°26' E 024°57'0 0.0
2017-Jun-22 01:21N 37°26' E 024°57'0 0.0
2017-Jun-22 00:49N 37°26' E 024°57'0 0.0
2017-Jun-22 00:25N 37°26' E 024°57'0 0.0
2017-Jun-21 23:51N 37°26' E 024°57'0 0.0
2017-Jun-21 23:29N 37°26' E 024°57'0 0.0
2017-Jun-21 23:00N 37°26' E 024°57'0 0.0
2017-Jun-21 22:30N 37°26' E 024°57'0 0.0
2017-Jun-21 22:00N 37°26' E 024°57'0 0.0
2017-Jun-21 21:29N 37°26' E 024°57'0 0.0
2017-Jun-21 21:00N 37°26' E 024°57'0 0.0
2017-Jun-21 20:30N 37°26' E 024°57'0 0.0
2017-Jun-21 20:01N 37°26' E 024°57'0 0.0
2017-Jun-21 19:30N 37°26' E 024°57'0 0.0
2017-Jun-21 18:59N 37°26' E 024°57'0 0.0
2017-Jun-21 18:30N 37°26' E 024°57'0 0.0
2017-Jun-21 18:00N 37°26' E 024°57'0 0.0
2017-Jun-21 09:07N 37°26' E 024°57'0 0.1
2017-Jun-21 08:58N 37°26' E 024°57'2 3.4
2017-Jun-21 08:30N 37°25' E 024°58'0 0.0
2017-Jun-21 08:01N 37°25' E 024°58'0 0.0
2017-Jun-21 07:31N 37°25' E 024°58'0 0.0
2017-Jun-21 07:00N 37°25' E 024°58'0 0.1
2017-Jun-21 06:31N 37°25' E 024°58'4 7.4
2017-Jun-21 06:01N 37°22' E 024°60'5 9.9
2017-Jun-21 05:30N 37°17' E 025°02'5 9.8
2017-Jun-21 05:00N 37°13' E 025°04'5 9.8
2017-Jun-21 04:30N 37°08' E 025°06'3 0.2
2017-Jun-20 08:58N 37°06' E 025°09'0 0.1
2017-Jun-20 08:30N 37°06' E 025°08'0 0.2
2017-Jun-20 08:00N 37°05' E 025°08'3 5.2
2017-Jun-20 07:31N 37°08' E 025°08'7 9.4
2017-Jun-20 06:44N 37°15' E 025°08'210.2
2017-Jun-20 06:30N 37°17' E 025°10'5 9.5
2017-Jun-20 06:00N 37°21' E 025°12'4 8.7
2017-Jun-20 05:30N 37°22' E 025°17'510.1
2017-Jun-20 05:00N 37°27' E 025°18'2 3.4
2017-Jun-20 04:30N 37°28' E 025°20'0 0.0
2017-Jun-20 04:00N 37°28' E 025°20'0 0.0
2017-Jun-20 03:30N 37°28' E 025°20'0 0.0
2017-Jun-20 03:00N 37°28' E 025°20'0 0.0
2017-Jun-20 02:31N 37°28' E 025°20'0 0.0
2017-Jun-20 02:00N 37°28' E 025°20'0 0.0
2017-Jun-20 01:30N 37°28' E 025°20'0 0.0
2017-Jun-20 00:59N 37°28' E 025°20'0 0.0
2017-Jun-20 00:30N 37°28' E 025°20'0 0.0
2017-Jun-20 00:00N 37°28' E 025°20'0 0.0
2017-Jun-19 23:30N 37°28' E 025°20'0 0.0
2017-Jun-19 23:00N 37°28' E 025°20'0 0.0
2017-Jun-19 22:30N 37°28' E 025°20'0 0.0
2017-Jun-19 21:59N 37°28' E 025°20'0 0.0
2017-Jun-19 21:25N 37°28' E 025°20'0 0.0
2017-Jun-19 21:00N 37°28' E 025°20'0 0.0
2017-Jun-19 20:28N 37°28' E 025°20'0 0.0
2017-Jun-19 19:35N 37°28' E 025°20'0 0.0
2017-Jun-19 19:30N 37°28' E 025°20'0 0.0
2017-Jun-19 18:48N 37°28' E 025°20'0 0.0
2017-Jun-19 18:29N 37°28' E 025°20'0 0.0
2017-Jun-19 18:00N 37°28' E 025°20'0 0.0
2017-Jun-19 17:26N 37°28' E 025°20'0 0.0
2017-Jun-19 17:00N 37°28' E 025°20'0 0.0
2017-Jun-19 16:30N 37°28' E 025°20'0 0.0
2017-Jun-19 16:00N 37°28' E 025°20'0 0.0
2017-Jun-19 15:30N 37°28' E 025°20'0 0.0
2017-Jun-19 15:00N 37°28' E 025°20'0 0.0
2017-Jun-19 14:30N 37°28' E 025°20'0 0.0
2017-Jun-19 13:31N 37°28' E 025°20'0 0.0
2017-Jun-19 13:00N 37°28' E 025°20'0 0.0
2017-Jun-19 12:28N 37°28' E 025°20'0 0.0
2017-Jun-19 12:00N 37°28' E 025°20'0 0.0
2017-Jun-19 11:29N 37°28' E 025°20'0 0.1
2017-Jun-19 11:00N 37°28' E 025°20'3 5.5
2017-Jun-19 10:30N 37°26' E 025°17'3 6.0
2017-Jun-19 10:00N 37°23' E 025°16'0 0.1
2017-Jun-19 09:30N 37°23' E 025°16'0 0.0
2017-Jun-19 09:00N 37°23' E 025°16'0 0.1
2017-Jun-19 08:30N 37°23' E 025°16'0 0.0
2017-Jun-19 08:00N 37°23' E 025°16'0 0.0
2017-Jun-19 07:31N 37°23' E 025°16'0 0.0
2017-Jun-19 07:00N 37°23' E 025°16'0 0.0
2017-Jun-19 06:30N 37°23' E 025°16'0 0.0
2017-Jun-19 06:00N 37°23' E 025°16'0 0.0
2017-Jun-19 05:30N 37°23' E 025°16'0 0.0
2017-Jun-19 05:00N 37°23' E 025°16'0 0.3
2017-Jun-19 04:30N 37°23' E 025°16'3 5.6
2017-Jun-19 04:00N 37°26' E 025°17'4 8.7
2017-Jun-19 03:30N 37°21' E 025°17'5 9.3
2017-Jun-19 03:00N 37°17' E 025°18'5 9.3
2017-Jun-19 02:30N 37°12' E 025°19'5 9.3
2017-Jun-19 02:00N 37°07' E 025°19'5 9.2
2017-Jun-19 01:30N 37°03' E 025°18'78 1.6
2017-Jun-17 01:14N 37°20' E 023°42'2 9.2
2017-Jun-17 01:00N 37°21' E 023°40'5 9.1
2017-Jun-17 00:27N 37°25' E 023°36'610.0
2017-Jun-16 23:53N 37°29' E 023°30'3 7.3
2017-Jun-16 23:30N 37°30' E 023°27'0 0.0
2017-Jun-16 23:00N 37°30' E 023°27'0 0.0
2017-Jun-16 22:30N 37°30' E 023°27'0 0.0
2017-Jun-16 22:00N 37°30' E 023°27'0 0.0
2017-Jun-16 21:30N 37°30' E 023°27'0 0.0
2017-Jun-16 21:00N 37°30' E 023°27'0 0.0
2017-Jun-16 20:30N 37°30' E 023°27'0 0.0
2017-Jun-16 20:00N 37°30' E 023°27'0 0.0
2017-Jun-16 19:30N 37°30' E 023°27'0 0.0
2017-Jun-16 19:00N 37°30' E 023°27'0 0.0
2017-Jun-16 18:30N 37°30' E 023°27'0 0.0
2017-Jun-16 18:00N 37°30' E 023°27'0 0.0
2017-Jun-16 17:30N 37°30' E 023°27'0 0.0
2017-Jun-16 17:00N 37°30' E 023°27'0 0.0
2017-Jun-16 16:30N 37°30' E 023°27'1 1.2
2017-Jun-16 16:00N 37°30' E 023°27'6 7.0
2017-Jun-16 15:08N 37°36' E 023°29'4 9.7
2017-Jun-16 14:43N 37°40' E 023°31'3 9.7
2017-Jun-16 14:27N 37°42' E 023°33'9 9.6
2017-Jun-16 13:31N 37°51' E 023°36'5 9.6
2017-Jun-16 13:00N 37°55' E 023°39'1 1.8
2017-Jun-16 12:30N 37°56' E 023°39'0 0.0
2017-Jun-16 12:00N 37°56' E 023°39'0 0.0
2017-Jun-16 11:30N 37°56' E 023°39'0 0.0
2017-Jun-16 11:01N 37°56' E 023°39'  
Track history (hours):
 
Tides and Currents Weather Stations Pressure Air Temp Water Temp Dewpoint Dewpoint Depression Visibility Wind Speed Wind Dir Waves Ship Positions

Galileo

Last reported at 2017-Jun-26 10:33 UTC. Time now 2017-Jun-26 15:31 UTC.
Position N 37°05' E 025°09'.

Length 50 m; draft 3 m.

Type: Passenger vessel. MMSI: 239299000.

Date/timePositionNaut miles runAvg speedWind from/ knotsBaromVisibWave heightAir tempDewpointWater temp
2017-Jun-26 10:33N 37°05' E 025°09'0 6.3
2017-Jun-26 10:30N 37°05' E 025°09'5 9.8
2017-Jun-26 10:00N 37°03' E 025°03'  
2017-Jun-23 23:55N 37°29' E 023°31'3 7.0
2017-Jun-23 23:29N 37°30' E 023°27'0 0.0
2017-Jun-23 20:38N 37°30' E 023°27'0 0.0
2017-Jun-23 20:30N 37°30' E 023°27'0 0.0
2017-Jun-23 20:00N 37°30' E 023°27'0 0.0
2017-Jun-23 19:29N 37°30' E 023°27'0 0.0
2017-Jun-23 19:00N 37°30' E 023°27'0 0.0
2017-Jun-23 17:34N 37°30' E 023°27'0 0.0
2017-Jun-23 17:30N 37°30' E 023°27'0 0.2
2017-Jun-23 16:09N 37°30' E 023°27'1 4.2
2017-Jun-23 16:00N 37°30' E 023°26'5 6.9
2017-Jun-23 15:18N 37°35' E 023°28'3 9.6
2017-Jun-23 15:01N 37°37' E 023°30'10 9.5
2017-Jun-23 14:01N 37°46' E 023°35'5 9.4
2017-Jun-23 13:31N 37°51' E 023°36'4 8.8
2017-Jun-23 13:01N 37°55' E 023°39'1 2.9
2017-Jun-23 12:31N 37°56' E 023°39'0 0.0
2017-Jun-23 12:00N 37°56' E 023°39'0 0.0
2017-Jun-23 11:31N 37°56' E 023°39'0 0.0
2017-Jun-23 11:01N 37°56' E 023°39'0 0.0
2017-Jun-23 10:31N 37°56' E 023°39'0 0.0
2017-Jun-23 10:00N 37°56' E 023°39'0 0.0
2017-Jun-23 09:30N 37°56' E 023°39'0 0.0
2017-Jun-23 09:00N 37°56' E 023°39'0 0.0
2017-Jun-23 08:31N 37°56' E 023°39'0 0.0
2017-Jun-23 08:01N 37°56' E 023°39'0 0.0
2017-Jun-23 07:31N 37°56' E 023°39'0 0.0
2017-Jun-23 07:01N 37°56' E 023°39'0 0.0
2017-Jun-23 06:31N 37°56' E 023°39'0 0.0
2017-Jun-23 06:01N 37°56' E 023°39'0 0.0
2017-Jun-23 05:31N 37°56' E 023°39'0 0.0
2017-Jun-23 05:00N 37°56' E 023°39'0 0.0
2017-Jun-23 04:31N 37°56' E 023°39'0 0.0
2017-Jun-23 04:01N 37°56' E 023°39'0 0.0
2017-Jun-23 03:31N 37°56' E 023°39'0 0.0
2017-Jun-23 03:00N 37°56' E 023°39'0 0.0
2017-Jun-23 02:31N 37°56' E 023°39'0 0.0
2017-Jun-23 02:01N 37°56' E 023°39'0 0.0
2017-Jun-23 01:30N 37°56' E 023°39'0 0.0
2017-Jun-23 01:00N 37°56' E 023°39'0 0.0
2017-Jun-23 00:30N 37°56' E 023°39'0 0.0
2017-Jun-23 00:00N 37°56' E 023°39'0 0.0
2017-Jun-22 23:31N 37°56' E 023°39'0 0.0
2017-Jun-22 23:00N 37°56' E 023°39'0 0.0
2017-Jun-22 22:30N 37°56' E 023°39'0 0.0
2017-Jun-22 22:01N 37°56' E 023°39'0 0.0
2017-Jun-22 21:30N 37°56' E 023°39'0 0.0
2017-Jun-22 21:00N 37°56' E 023°39'0 0.0
2017-Jun-22 20:30N 37°56' E 023°39'0 0.0
2017-Jun-22 20:01N 37°56' E 023°39'0 0.0
2017-Jun-22 19:30N 37°56' E 023°39'0 0.0
2017-Jun-22 19:01N 37°56' E 023°39'0 0.0
2017-Jun-22 18:31N 37°56' E 023°39'0 0.0
2017-Jun-22 18:01N 37°56' E 023°39'0 0.0
2017-Jun-22 17:31N 37°56' E 023°39'0 0.0
2017-Jun-22 17:01N 37°56' E 023°39'0 0.0
2017-Jun-22 16:30N 37°56' E 023°39'0 0.1
2017-Jun-22 16:00N 37°56' E 023°39'1 1.0
2017-Jun-22 15:30N 37°56' E 023°40'4 7.6
2017-Jun-22 15:01N 37°52' E 023°42'4 7.7
2017-Jun-22 14:31N 37°49' E 023°44'51 5.1
2017-Jun-22 04:35N 37°31' E 024°44'1 9.6
2017-Jun-22 04:30N 37°31' E 024°45'5 9.6
2017-Jun-22 04:00N 37°31' E 024°51'5 9.4
2017-Jun-22 03:27N 37°30' E 024°57'4 7.9
2017-Jun-22 03:00N 37°26' E 024°57'0 0.1
2017-Jun-22 02:28N 37°26' E 024°57'0 0.0
2017-Jun-22 02:00N 37°26' E 024°57'0 0.0
2017-Jun-22 01:21N 37°26' E 024°57'0 0.0
2017-Jun-22 00:49N 37°26' E 024°57'0 0.0
2017-Jun-22 00:25N 37°26' E 024°57'0 0.0
2017-Jun-21 23:51N 37°26' E 024°57'0 0.0
2017-Jun-21 23:29N 37°26' E 024°57'0 0.0
2017-Jun-21 23:00N 37°26' E 024°57'0 0.0
2017-Jun-21 22:30N 37°26' E 024°57'0 0.0
2017-Jun-21 22:00N 37°26' E 024°57'0 0.0
2017-Jun-21 21:29N 37°26' E 024°57'0 0.0
2017-Jun-21 21:00N 37°26' E 024°57'0 0.0
2017-Jun-21 20:30N 37°26' E 024°57'0 0.0
2017-Jun-21 20:01N 37°26' E 024°57'0 0.0
2017-Jun-21 19:30N 37°26' E 024°57'0 0.0
2017-Jun-21 18:59N 37°26' E 024°57'0 0.0
2017-Jun-21 18:30N 37°26' E 024°57'0 0.0
2017-Jun-21 18:00N 37°26' E 024°57'0 0.0
2017-Jun-21 09:07N 37°26' E 024°57'0 0.1
2017-Jun-21 08:58N 37°26' E 024°57'2 3.4
2017-Jun-21 08:30N 37°25' E 024°58'0 0.0
2017-Jun-21 08:01N 37°25' E 024°58'0 0.0
2017-Jun-21 07:31N 37°25' E 024°58'0 0.0
2017-Jun-21 07:00N 37°25' E 024°58'0 0.1
2017-Jun-21 06:31N 37°25' E 024°58'4 7.4
2017-Jun-21 06:01N 37°22' E 024°60'5 9.9
2017-Jun-21 05:30N 37°17' E 025°02'5 9.8
2017-Jun-21 05:00N 37°13' E 025°04'5 9.8
2017-Jun-21 04:30N 37°08' E 025°06'3 0.2
2017-Jun-20 08:58N 37°06' E 025°09'0 0.1
2017-Jun-20 08:30N 37°06' E 025°08'0 0.2
2017-Jun-20 08:00N 37°05' E 025°08'3 5.2
2017-Jun-20 07:31N 37°08' E 025°08'7 9.4
2017-Jun-20 06:44N 37°15' E 025°08'210.2
2017-Jun-20 06:30N 37°17' E 025°10'5 9.5
2017-Jun-20 06:00N 37°21' E 025°12'4 8.7
2017-Jun-20 05:30N 37°22' E 025°17'510.1
2017-Jun-20 05:00N 37°27' E 025°18'2 3.4
2017-Jun-20 04:30N 37°28' E 025°20'0 0.0
2017-Jun-20 04:00N 37°28' E 025°20'0 0.0
2017-Jun-20 03:30N 37°28' E 025°20'0 0.0
2017-Jun-20 03:00N 37°28' E 025°20'0 0.0
2017-Jun-20 02:31N 37°28' E 025°20'0 0.0
2017-Jun-20 02:00N 37°28' E 025°20'0 0.0
2017-Jun-20 01:30N 37°28' E 025°20'0 0.0
2017-Jun-20 00:59N 37°28' E 025°20'0 0.0
2017-Jun-20 00:30N 37°28' E 025°20'0 0.0
2017-Jun-20 00:00N 37°28' E 025°20'0 0.0
2017-Jun-19 23:30N 37°28' E 025°20'0 0.0
2017-Jun-19 23:00N 37°28' E 025°20'0 0.0
2017-Jun-19 22:30N 37°28' E 025°20'0 0.0
2017-Jun-19 21:59N 37°28' E 025°20'0 0.0
2017-Jun-19 21:25N 37°28' E 025°20'0 0.0
2017-Jun-19 21:00N 37°28' E 025°20'0 0.0
2017-Jun-19 20:28N 37°28' E 025°20'0 0.0
2017-Jun-19 19:35N 37°28' E 025°20'0 0.0
2017-Jun-19 19:30N 37°28' E 025°20'0 0.0
2017-Jun-19 18:48N 37°28' E 025°20'0 0.0
2017-Jun-19 18:29N 37°28' E 025°20'0 0.0
2017-Jun-19 18:00N 37°28' E 025°20'0 0.0
2017-Jun-19 17:26N 37°28' E 025°20'0 0.0
2017-Jun-19 17:00N 37°28' E 025°20'0 0.0
2017-Jun-19 16:30N 37°28' E 025°20'0 0.0
2017-Jun-19 16:00N 37°28' E 025°20'0 0.0
2017-Jun-19 15:30N 37°28' E 025°20'0 0.0
2017-Jun-19 15:00N 37°28' E 025°20'0 0.0
2017-Jun-19 14:30N 37°28' E 025°20'0 0.0
2017-Jun-19 13:31N 37°28' E 025°20'0 0.0
2017-Jun-19 13:00N 37°28' E 025°20'0 0.0
2017-Jun-19 12:28N 37°28' E 025°20'0 0.0
2017-Jun-19 12:00N 37°28' E 025°20'0 0.0
2017-Jun-19 11:29N 37°28' E 025°20'0 0.1
2017-Jun-19 11:00N 37°28' E 025°20'3 5.5
2017-Jun-19 10:30N 37°26' E 025°17'3 6.0
2017-Jun-19 10:00N 37°23' E 025°16'0 0.1
2017-Jun-19 09:30N 37°23' E 025°16'0 0.0
2017-Jun-19 09:00N 37°23' E 025°16'0 0.1
2017-Jun-19 08:30N 37°23' E 025°16'0 0.0
2017-Jun-19 08:00N 37°23' E 025°16'0 0.0
2017-Jun-19 07:31N 37°23' E 025°16'0 0.0
2017-Jun-19 07:00N 37°23' E 025°16'0 0.0
2017-Jun-19 06:30N 37°23' E 025°16'0 0.0
2017-Jun-19 06:00N 37°23' E 025°16'0 0.0
2017-Jun-19 05:30N 37°23' E 025°16'0 0.0
2017-Jun-19 05:00N 37°23' E 025°16'0 0.3
2017-Jun-19 04:30N 37°23' E 025°16'3 5.6
2017-Jun-19 04:00N 37°26' E 025°17'4 8.7
2017-Jun-19 03:30N 37°21' E 025°17'5 9.3
2017-Jun-19 03:00N 37°17' E 025°18'5 9.3
2017-Jun-19 02:30N 37°12' E 025°19'5 9.3
2017-Jun-19 02:00N 37°07' E 025°19'5 9.2
2017-Jun-19 01:30N 37°03' E 025°18'78 1.6
2017-Jun-17 01:14N 37°20' E 023°42'2 9.2
2017-Jun-17 01:00N 37°21' E 023°40'5 9.1
2017-Jun-17 00:27N 37°25' E 023°36'610.0
2017-Jun-16 23:53N 37°29' E 023°30'3 7.3
2017-Jun-16 23:30N 37°30' E 023°27'0 0.0
2017-Jun-16 23:00N 37°30' E 023°27'0 0.0
2017-Jun-16 22:30N 37°30' E 023°27'0 0.0
2017-Jun-16 22:00N 37°30' E 023°27'0 0.0
2017-Jun-16 21:30N 37°30' E 023°27'0 0.0
2017-Jun-16 21:00N 37°30' E 023°27'0 0.0
2017-Jun-16 20:30N 37°30' E 023°27'0 0.0
2017-Jun-16 20:00N 37°30' E 023°27'0 0.0
2017-Jun-16 19:30N 37°30' E 023°27'0 0.0
2017-Jun-16 19:00N 37°30' E 023°27'0 0.0
2017-Jun-16 18:30N 37°30' E 023°27'0 0.0
2017-Jun-16 18:00N 37°30' E 023°27'0 0.0
2017-Jun-16 17:30N 37°30' E 023°27'0 0.0
2017-Jun-16 17:00N 37°30' E 023°27'0 0.0
2017-Jun-16 16:30N 37°30' E 023°27'1 1.2
2017-Jun-16 16:00N 37°30' E 023°27'6 7.0
2017-Jun-16 15:08N 37°36' E 023°29'4 9.7
2017-Jun-16 14:43N 37°40' E 023°31'3 9.7
2017-Jun-16 14:27N 37°42' E 023°33'9 9.6
2017-Jun-16 13:31N 37°51' E 023°36'5 9.6
2017-Jun-16 13:00N 37°55' E 023°39'1 1.8
2017-Jun-16 12:30N 37°56' E 023°39'0 0.0
2017-Jun-16 12:00N 37°56' E 023°39'0 0.0
2017-Jun-16 11:30N 37°56' E 023°39'0 0.0
2017-Jun-16 11:01N 37°56' E 023°39'  

Dump ship's entire track history